Time;durP1;ratioP1;P1;durP2;ratioP2;P2;SDS_P1;SDS_P2;PMS_P1;PMS_P2;Temp;Humidity;BMP_temperature;BMP_pressure;BME280_temperature;BME280_humidity;BME280_pressure;Samples;Min_cycle;Max_cycle;Signal;HPM_P1;HPM_P2
2022/03/23 00:01:25;;;;;;;15.60;8.27;;;7.50;39.00;;;;;;5059339;28;20057;-76
2022/03/23 00:03:52;;;;;;;15.15;7.85;;;7.30;39.50;;;;;;5058548;28;20090;-76
2022/03/23 00:06:18;;;;;;;14.65;7.68;;;7.20;40.60;;;;;;5040726;28;20021;-77
2022/03/23 00:08:45;;;;;;;25.63;13.15;;;7.10;41.00;;;;;;5042004;28;20039;-76
2022/03/23 00:11:10;;;;;;;16.77;9.77;;;6.90;43.00;;;;;;5042313;28;20036;-76
2022/03/23 00:13:41;;;;;;;14.75;7.20;;;6.80;41.50;;;;;;5059597;28;20013;-77
2022/03/23 00:16:07;;;;;;;12.30;7.93;;;6.90;40.50;;;;;;5057270;28;20044;-76
2022/03/23 00:18:32;;;;;;;13.23;8.10;;;7.10;40.10;;;;;;5037509;28;20029;-76
2022/03/23 00:20:58;;;;;;;12.95;8.05;;;7.00;40.30;;;;;;5055190;28;20033;-76
2022/03/23 00:23:24;;;;;;;12.77;7.65;;;7.00;40.10;;;;;;5055121;28;20167;-78
2022/03/23 00:25:49;;;;;;;19.42;8.35;;;7.00;40.30;;;;;;5037351;28;20416;-76
2022/03/23 00:28:15;;;;;;;11.77;8.00;;;7.00;39.80;;;;;;5043276;23;20075;-76
2022/03/23 00:30:41;;;;;;;13.35;8.85;;;7.00;40.80;;;;;;5031620;28;20033;-76
2022/03/23 00:33:07;;;;;;;13.52;8.23;;;6.80;40.60;;;;;;5033864;28;20109;-77
2022/03/23 00:35:32;;;;;;;15.25;8.63;;;6.70;41.60;;;;;;5034280;28;20061;-77
2022/03/23 00:37:58;;;;;;;15.18;8.50;;;6.60;40.90;;;;;;5033644;28;20030;-76
2022/03/23 00:40:25;;;;;;;14.55;7.78;;;6.70;41.50;;;;;;5033572;28;20025;-76
2022/03/23 00:42:52;;;;;;;14.88;8.95;;;6.50;42.10;;;;;;5033709;28;20104;-77
2022/03/23 00:45:18;;;;;;;15.05;9.38;;;6.50;42.40;;;;;;5050751;23;1049402;-69
2022/03/23 00:47:45;;;;;;;16.50;8.25;;;6.40;43.10;;;;;;5053212;28;20479;-68
2022/03/23 00:50:11;;;;;;;14.52;9.35;;;6.30;42.50;;;;;;5054392;28;20025;-68
2022/03/23 00:52:37;;;;;;;17.10;9.68;;;6.20;43.30;;;;;;5054227;28;20526;-70
2022/03/23 00:55:05;;;;;;;15.30;9.13;;;6.20;43.20;;;;;;5054040;28;20017;-70
2022/03/23 00:57:30;;;;;;;14.55;8.25;;;6.20;42.70;;;;;;5053841;28;20028;-68
2022/03/23 00:59:56;;;;;;;17.90;10.52;;;6.20;42.80;;;;;;5036851;28;20029;-69
2022/03/23 01:02:21;;;;;;;20.20;10.32;;;6.30;43.10;;;;;;5054195;28;20109;-69
2022/03/23 01:04:47;;;;;;;18.25;9.65;;;6.40;43.30;;;;;;5054071;28;20076;-69
2022/03/23 01:07:12;;;;;;;16.30;9.38;;;6.50;44.40;;;;;;5054485;28;20096;-68
2022/03/23 01:09:38;;;;;;;16.10;8.70;;;6.50;44.20;;;;;;5054331;28;20013;-69
2022/03/23 01:12:04;;;;;;;17.95;8.02;;;6.50;42.50;;;;;;5053876;28;20017;-68
2022/03/23 01:14:29;;;;;;;19.65;8.48;;;6.40;41.80;;;;;;5053657;28;20029;-69
2022/03/23 01:16:55;;;;;;;14.95;8.13;;;6.30;42.80;;;;;;5053899;28;20013;-69
2022/03/23 01:19:25;;;;;;;13.48;7.47;;;6.10;43.60;;;;;;5054002;28;20028;-68
2022/03/23 01:21:51;;;;;;;14.70;8.45;;;6.00;43.40;;;;;;5054093;28;20439;-68
2022/03/23 01:24:17;;;;;;;15.70;8.25;;;5.90;44.50;;;;;;5053647;28;20029;-68
2022/03/23 01:26:42;;;;;;;12.25;7.50;;;5.80;44.00;;;;;;5053614;28;20120;-69
2022/03/23 01:29:08;;;;;;;15.80;8.38;;;5.80;43.80;;;;;;5053639;28;20439;-69
2022/03/23 01:31:33;;;;;;;13.25;8.45;;;5.80;44.20;;;;;;5053792;28;20056;-69
2022/03/23 01:33:59;;;;;;;13.30;8.52;;;5.70;44.40;;;;;;5053404;28;20021;-69
2022/03/23 01:36:29;;;;;;;15.68;9.27;;;5.60;46.70;;;;;;5053390;28;20025;-68
2022/03/23 01:38:55;;;;;;;18.40;10.15;;;5.30;48.50;;;;;;5036734;28;20164;-69
2022/03/23 01:41:21;;;;;;;17.35;9.40;;;5.10;49.60;;;;;;5053392;28;20100;-69
2022/03/23 01:43:47;;;;;;;17.73;9.23;;;4.90;51.50;;;;;;5035220;28;20025;-68
2022/03/23 01:46:19;;;;;;;18.77;9.93;;;4.60;52.80;;;;;;5053456;28;20025;-68
2022/03/23 01:48:46;;;;;;;18.52;9.40;;;4.50;53.30;;;;;;5045528;28;20028;-68
2022/03/23 01:51:13;;;;;;;16.17;9.27;;;4.30;53.70;;;;;;5053114;28;20052;-68
2022/03/23 01:53:40;;;;;;;18.38;9.20;;;4.30;53.90;;;;;;5053035;28;20033;-68
2022/03/23 01:56:07;;;;;;;14.02;8.32;;;4.20;53.60;;;;;;5053019;28;20025;-69
2022/03/23 01:58:33;;;;;;;16.77;8.77;;;4.20;53.60;;;;;;5052377;28;20495;-68
2022/03/23 02:00:59;;;;;;;14.90;8.75;;;4.00;53.70;;;;;;5053169;28;20037;-68
2022/03/23 02:03:26;;;;;;;19.98;9.35;;;4.00;53.40;;;;;;5034881;28;20055;-68
2022/03/23 02:05:51;;;;;;;13.38;7.80;;;4.00;53.20;;;;;;5052759;28;20492;-69
2022/03/23 02:08:17;;;;;;;12.57;7.65;;;4.00;52.90;;;;;;5052447;28;20032;-68
2022/03/23 02:10:42;;;;;;;17.50;8.60;;;3.90;52.70;;;;;;5052630;28;20048;-68
2022/03/23 02:13:09;;;;;;;14.60;9.00;;;3.90;51.90;;;;;;5052241;28;20024;-69
2022/03/23 02:15:35;;;;;;;13.88;8.27;;;3.90;52.50;;;;;;5052786;28;20028;-68
2022/03/23 02:18:01;;;;;;;15.18;8.73;;;3.80;52.30;;;;;;5052473;28;20083;-68
2022/03/23 02:20:26;;;;;;;13.43;8.43;;;3.80;52.70;;;;;;5052503;28;20025;-68
2022/03/23 02:22:52;;;;;;;15.93;7.72;;;3.80;52.90;;;;;;5052444;28;20017;-69
2022/03/23 02:25:25;;;;;;;13.30;7.88;;;3.80;53.10;;;;;;5052190;28;20116;-69
2022/03/23 02:27:52;;;;;;;13.73;8.27;;;3.80;53.60;;;;;;5051914;28;20029;-69
2022/03/23 02:30:18;;;;;;;18.13;9.25;;;3.60;53.60;;;;;;5052309;28;20025;-69
2022/03/23 02:32:44;;;;;;;13.88;9.00;;;3.70;53.30;;;;;;5052206;28;20021;-73
2022/03/23 02:35:11;;;;;;;15.45;8.32;;;3.60;53.60;;;;;;5052220;28;20021;-69
2022/03/23 02:37:40;;;;;;;16.13;8.85;;;3.50;53.70;;;;;;5051713;28;20439;-68
2022/03/23 02:40:08;;;;;;;14.73;8.50;;;3.50;54.00;;;;;;5052227;28;20546;-69
2022/03/23 02:42:34;;;;;;;16.50;8.35;;;3.50;54.60;;;;;;5034967;28;20041;-68
2022/03/23 02:45:00;;;;;;;16.98;8.68;;;3.50;54.80;;;;;;5051973;28;20377;-69
2022/03/23 02:47:25;;;;;;;14.65;8.73;;;3.40;54.80;;;;;;5052482;28;20044;-69
2022/03/23 02:49:51;;;;;;;13.55;8.32;;;3.40;54.80;;;;;;5053062;28;20056;-69
2022/03/23 02:52:16;;;;;;;16.05;9.07;;;3.40;54.80;;;;;;5055869;28;20191;-69
2022/03/23 03:03:07;;;;;;;11.65;7.93;;;3.30;55.00;;;;;;5038353;28;20502;-69
2022/03/23 03:05:33;;;;;;;20.77;8.35;;;3.30;55.00;;;;;;5051952;28;20064;-69
2022/03/23 03:10:43;;;;;;;17.88;9.15;;;3.10;56.30;;;;;;5052655;28;20078;-69
2022/03/23 03:13:08;;;;;;;18.13;9.77;;;3.10;56.60;;;;;;5052829;28;20476;-69
2022/03/23 03:15:34;;;;;;;16.55;8.02;;;3.20;57.60;;;;;;5057689;28;20036;-69
2022/03/23 03:18:00;;;;;;;15.98;8.60;;;3.10;57.70;;;;;;5056883;28;20138;-69
2022/03/23 03:20:27;;;;;;;17.35;8.98;;;3.10;57.40;;;;;;5057080;28;20028;-69
2022/03/23 03:22:53;;;;;;;17.85;8.80;;;3.10;57.40;;;;;;5057146;28;20048;-69
2022/03/23 03:25:20;;;;;;;15.23;8.52;;;3.00;57.50;;;;;;5054030;28;20035;-68
2022/03/23 03:27:46;;;;;;;11.93;7.63;;;3.00;57.40;;;;;;5033630;28;20100;-68
2022/03/23 03:30:15;;;;;;;14.55;7.55;;;3.00;57.40;;;;;;5051417;28;20052;-69
2022/03/23 03:32:41;;;;;;;15.43;8.25;;;2.90;57.30;;;;;;5051485;28;20092;-69
2022/03/23 03:35:07;;;;;;;19.20;8.82;;;2.90;57.20;;;;;;5051659;28;20456;-69
2022/03/23 03:37:34;;;;;;;14.65;7.88;;;2.90;57.40;;;;;;5051357;28;20543;-69
2022/03/23 03:40:00;;;;;;;16.08;8.75;;;2.90;57.40;;;;;;5051495;28;20021;-69
2022/03/23 03:42:26;;;;;;;16.08;8.70;;;2.80;57.70;;;;;;5051380;28;20098;-69
2022/03/23 03:44:52;;;;;;;17.77;9.15;;;2.70;58.00;;;;;;5050826;28;20025;-69
2022/03/23 03:47:19;;;;;;;15.98;8.40;;;2.80;57.50;;;;;;5031185;28;20013;-68
2022/03/23 03:49:46;;;;;;;20.85;8.30;;;2.80;57.60;;;;;;5044884;28;20017;-69
2022/03/23 03:52:12;;;;;;;14.10;8.80;;;2.80;57.70;;;;;;5051541;28;20491;-68
2022/03/23 03:54:37;;;;;;;15.80;7.95;;;2.70;57.90;;;;;;5050992;28;20021;-68
2022/03/23 03:57:03;;;;;;;14.23;8.23;;;2.60;58.60;;;;;;5051209;28;20017;-68
2022/03/23 03:59:29;;;;;;;15.10;8.27;;;2.60;58.90;;;;;;5050944;28;20040;-69
2022/03/23 04:01:54;;;;;;;15.70;8.15;;;2.50;59.00;;;;;;5050972;28;20104;-68
2022/03/23 04:04:20;;;;;;;16.77;8.10;;;2.40;59.80;;;;;;5050772;28;20032;-68
2022/03/23 04:06:45;;;;;;;17.42;8.80;;;2.50;60.20;;;;;;5050948;28;20049;-69
2022/03/23 04:09:11;;;;;;;13.73;7.43;;;2.30;60.60;;;;;;5050762;28;20048;-69
2022/03/23 04:11:38;;;;;;;16.35;9.05;;;2.30;61.00;;;;;;5051015;28;20116;-69
2022/03/23 04:14:04;;;;;;;16.75;8.48;;;2.30;61.70;;;;;;5050743;28;20404;-69
2022/03/23 04:16:29;;;;;;;15.65;9.32;;;2.20;61.60;;;;;;5050820;28;20021;-69
2022/03/23 04:18:55;;;;;;;12.38;7.28;;;2.20;61.70;;;;;;5050875;28;20028;-69
2022/03/23 04:21:20;;;;;;;13.32;8.30;;;2.20;61.80;;;;;;5032835;28;20048;-69
2022/03/23 04:23:46;;;;;;;16.92;8.68;;;2.30;62.20;;;;;;5050756;28;20476;-69
2022/03/23 04:26:11;;;;;;;24.38;9.75;;;2.20;62.70;;;;;;5050631;28;20029;-69
2022/03/23 04:28:38;;;;;;;18.05;8.38;;;2.20;62.80;;;;;;5050236;28;20029;-69
2022/03/23 04:31:04;;;;;;;14.52;8.73;;;2.20;62.90;;;;;;5050819;28;20021;-68
2022/03/23 04:33:30;;;;;;;16.20;9.35;;;2.10;63.20;;;;;;5050903;28;20481;-69
2022/03/23 04:35:55;;;;;;;16.20;7.53;;;2.10;63.20;;;;;;5032714;28;20079;-69
2022/03/23 04:38:21;;;;;;;17.60;9.05;;;2.00;63.30;;;;;;5053692;28;20084;-68
2022/03/23 04:40:47;;;;;;;21.08;9.45;;;2.00;63.50;;;;;;5036203;28;20116;-69
2022/03/23 04:43:12;;;;;;;14.15;8.23;;;2.00;63.40;;;;;;5053981;28;20120;-68
2022/03/23 04:45:39;;;;;;;14.60;8.35;;;1.90;63.80;;;;;;5053826;28;20032;-69
2022/03/23 04:48:05;;;;;;;17.98;9.63;;;2.00;63.60;;;;;;5054021;28;20079;-68
2022/03/23 04:50:31;;;;;;;15.65;9.50;;;1.90;64.00;;;;;;5053926;28;20017;-68
2022/03/23 04:52:56;;;;;;;14.80;8.40;;;1.90;64.20;;;;;;5054036;28;20083;-68
2022/03/23 04:55:22;;;;;;;17.40;8.95;;;1.80;64.40;;;;;;5053923;28;20021;-68
2022/03/23 04:57:48;;;;;;;13.85;8.00;;;1.80;64.40;;;;;;5053631;28;20036;-68
2022/03/23 05:00:16;;;;;;;15.00;8.30;;;1.80;64.10;;;;;;5054238;28;20029;-68
2022/03/23 05:02:43;;;;;;;15.57;7.80;;;1.80;64.40;;;;;;5053716;28;20078;-69
2022/03/23 05:05:11;;;;;;;15.07;8.88;;;1.80;64.40;;;;;;5053690;28;20116;-69
2022/03/23 05:07:37;;;;;;;18.85;8.93;;;1.80;64.40;;;;;;5035593;28;20028;-69
2022/03/23 05:10:04;;;;;;;17.02;8.65;;;1.70;64.50;;;;;;5053719;28;20021;-69
2022/03/23 05:12:29;;;;;;;16.58;8.65;;;1.70;64.50;;;;;;5053453;28;20037;-69
2022/03/23 05:14:55;;;;;;;15.90;8.93;;;1.80;64.70;;;;;;5035615;28;20029;-68
2022/03/23 05:17:20;;;;;;;14.88;8.82;;;1.80;64.40;;;;;;5053357;28;20052;-68
2022/03/23 05:19:46;;;;;;;17.08;9.27;;;1.90;64.20;;;;;;5053675;28;20031;-68
2022/03/23 05:22:12;;;;;;;16.63;8.05;;;1.90;64.20;;;;;;5053685;28;20082;-68
2022/03/23 05:24:39;;;;;;;15.40;9.00;;;2.10;64.50;;;;;;5053585;28;20033;-68
2022/03/23 05:27:06;;;;;;;18.73;8.27;;;2.60;63.50;;;;;;5053311;28;20019;-68
2022/03/23 05:29:32;;;;;;;15.80;8.40;;;3.60;61.00;;;;;;5053304;28;20021;-68
2022/03/23 05:31:57;;;;;;;13.98;8.02;;;4.60;57.20;;;;;;5053520;28;20035;-68
2022/03/23 05:34:23;;;;;;;14.65;8.23;;;5.60;54.30;;;;;;5053281;28;20036;-69
2022/03/23 05:36:48;;;;;;;15.82;8.10;;;6.30;51.80;;;;;;5053152;28;20068;-69
2022/03/23 05:39:14;;;;;;;15.07;7.95;;;7.30;49.50;;;;;;5052832;28;20032;-69
2022/03/23 05:41:40;;;;;;;17.38;8.30;;;8.10;47.60;;;;;;5035443;28;20033;-69
2022/03/23 05:44:05;;;;;;;19.38;8.65;;;9.10;44.20;;;;;;5052854;28;20411;-69
2022/03/23 05:46:32;;;;;;;13.50;8.18;;;9.50;43.00;;;;;;5052735;28;20028;-70
2022/03/23 05:48:57;;;;;;;19.30;9.30;;;10.10;41.60;;;;;;5033452;28;20114;-69
2022/03/23 05:51:23;;;;;;;16.75;9.50;;;11.00;39.60;;;;;;5051532;28;20513;-70
2022/03/23 05:53:49;;;;;;;16.08;9.50;;;11.70;37.80;;;;;;5048346;28;20021;-70
2022/03/23 05:56:15;;;;;;;15.50;8.95;;;12.00;36.90;;;;;;5034027;28;20056;-70
2022/03/23 05:58:40;;;;;;;14.07;8.98;;;12.60;35.80;;;;;;5014747;28;20103;-71
2022/03/23 06:01:06;;;;;;;25.45;9.45;;;13.40;34.50;;;;;;5053178;28;20033;-70
2022/03/23 06:03:32;;;;;;;17.52;9.25;;;14.10;33.60;;;;;;5053191;28;20036;-69
2022/03/23 06:05:58;;;;;;;20.20;9.52;;;14.80;32.00;;;;;;5052976;28;20108;-69
2022/03/23 06:08:24;;;;;;;13.75;8.73;;;14.90;31.10;;;;;;5052816;28;20021;-69
2022/03/23 06:10:49;;;;;;;13.18;8.60;;;14.60;31.40;;;;;;5052873;28;20013;-70
2022/03/23 06:13:15;;;;;;;13.52;9.50;;;15.40;30.90;;;;;;5052499;28;20400;-70
2022/03/23 06:15:41;;;;;;;15.48;8.95;;;16.00;29.50;;;;;;5052193;28;20392;-71
2022/03/23 06:18:07;;;;;;;12.55;8.07;;;16.50;28.40;;;;;;5034535;28;20028;-71
2022/03/23 06:20:33;;;;;;;17.80;8.27;;;;;;;;;;5052814;28;20033;-70
2022/03/23 06:22:58;;;;;;;14.63;8.18;;;17.90;26.60;;;;;;5052452;28;20071;-70
2022/03/23 06:25:27;;;;;;;14.85;10.07;;;18.30;26.30;;;;;;5051518;28;20451;-71
2022/03/23 06:27:53;;;;;;;15.18;8.88;;;19.00;25.20;;;;;;5051877;28;20025;-71
2022/03/23 06:30:19;;;;;;;13.68;9.07;;;;;;;;;;5052074;28;20052;-71
2022/03/23 06:32:45;;;;;;;15.15;10.02;;;19.20;24.50;;;;;;5050849;28;20535;-70
2022/03/23 06:35:10;;;;;;;13.30;9.45;;;19.60;24.60;;;;;;5051454;28;20036;-69
2022/03/23 06:37:36;;;;;;;14.93;8.70;;;20.10;23.80;;;;;;5051406;28;20017;-70
2022/03/23 06:40:04;;;;;;;15.82;8.50;;;20.30;23.40;;;;;;5051338;28;20029;-71
2022/03/23 06:42:29;;;;;;;15.95;8.75;;;20.30;23.10;;;;;;5050226;28;20392;-70
2022/03/23 06:44:55;;;;;;;14.98;8.88;;;20.40;22.90;;;;;;5047559;28;20025;-69
2022/03/23 06:47:20;;;;;;;12.13;8.43;;;20.50;22.30;;;;;;5044787;28;20047;-70
2022/03/23 06:49:46;;;;;;;18.30;9.75;;;21.00;21.80;;;;;;5023127;28;20037;-70
2022/03/23 06:52:12;;;;;;;15.98;10.05;;;20.70;22.40;;;;;;5043958;28;20033;-70
2022/03/23 06:54:37;;;;;;;12.95;8.70;;;21.10;22.10;;;;;;5050666;28;20021;-71
2022/03/23 06:57:03;;;;;;;12.13;8.82;;;21.60;21.50;;;;;;5040928;28;20020;-68
2022/03/23 06:59:29;;;;;;;22.42;10.00;;;22.00;20.20;;;;;;5051466;28;20013;-68
2022/03/23 07:01:54;;;;;;;15.02;9.30;;;22.00;20.70;;;;;;5051803;28;20100;-69
2022/03/23 07:04:24;;;;;;;17.20;9.05;;;22.50;20.40;;;;;;5029326;28;20021;-71
2022/03/23 07:06:51;;;;;;;13.20;8.70;;;22.60;20.00;;;;;;5045952;28;20019;-69
2022/03/23 07:09:31;;;;;;;11.93;9.07;;;22.80;19.50;;;;;;5040685;28;20068;-69
2022/03/23 07:12:02;;;;;;;13.02;8.43;;;22.70;19.70;;;;;;5050651;28;20017;-69
2022/03/23 07:14:29;;;;;;;15.60;9.73;;;22.60;20.10;;;;;;5050908;28;20025;-70
2022/03/23 07:16:55;;;;;;;15.23;9.27;;;22.50;20.20;;;;;;5048424;28;20043;-68
2022/03/23 07:19:22;;;;;;;12.77;8.82;;;22.70;20.30;;;;;;5032583;28;20017;-69
2022/03/23 07:21:48;;;;;;;13.68;8.50;;;23.20;18.60;;;;;;5050694;28;20032;-68
2022/03/23 07:24:14;;;;;;;13.15;8.25;;;23.40;18.60;;;;;;5032984;28;20029;-69
2022/03/23 07:26:39;;;;;;;13.10;9.82;;;22.90;18.40;;;;;;5049177;28;20025;-69
2022/03/23 07:29:05;;;;;;;12.07;8.40;;;22.50;19.00;;;;;;5050255;28;20395;-68
2022/03/23 07:31:31;;;;;;;14.57;9.25;;;23.00;18.70;;;;;;5050973;28;20036;-69
2022/03/23 07:33:59;;;;;;;12.80;8.95;;;23.80;18.20;;;;;;5032809;28;20484;-71
2022/03/23 07:36:26;;;;;;;13.25;8.55;;;24.10;18.00;;;;;;5049247;28;20026;-72
2022/03/23 07:38:54;;;;;;;13.90;9.40;;;23.40;18.00;;;;;;5048182;28;20025;-71
2022/03/23 07:41:20;;;;;;;13.07;9.25;;;21.90;18.80;;;;;;5051066;28;20098;-72
2022/03/23 07:43:46;;;;;;;17.58;9.45;;;21.70;20.10;;;;;;5046758;28;20064;-72
2022/03/23 07:46:14;;;;;;;14.20;9.55;;;22.50;18.40;;;;;;5051260;28;20506;-72
2022/03/23 07:48:48;;;;;;;12.50;8.65;;;22.90;18.70;;;;;;5049740;28;20036;-74
2022/03/23 07:51:16;;;;;;;12.95;9.18;;;23.00;17.60;;;;;;5049799;28;20091;-70
2022/03/23 07:53:42;;;;;;;14.70;8.68;;;23.30;17.70;;;;;;5031730;28;20083;-71
2022/03/23 07:56:07;;;;;;;10.95;8.45;;;23.40;17.40;;;;;;5050500;28;20033;-71
2022/03/23 07:58:33;;;;;;;12.65;9.02;;;22.90;17.70;;;;;;5048253;28;20037;-70
2022/03/23 08:00:58;;;;;;;12.20;8.75;;;23.60;17.20;;;;;;5049464;28;20024;-70
2022/03/23 08:03:24;;;;;;;12.18;8.65;;;24.60;17.20;;;;;;5049756;28;20520;-70
2022/03/23 08:05:49;;;;;;;14.63;8.65;;;25.00;16.30;;;;;;5047042;28;20060;-70
2022/03/23 08:08:15;;;;;;;11.93;8.98;;;24.70;15.90;;;;;;5037528;28;20013;-69
2022/03/23 08:10:42;;;;;;;18.25;9.68;;;23.90;16.60;;;;;;5042561;28;20029;-70
2022/03/23 08:13:09;;;;;;;11.75;8.80;;;24.00;16.60;;;;;;5034052;28;20104;-70
2022/03/23 08:15:36;;;;;;;14.88;9.30;;;23.60;17.10;;;;;;5047028;28;20031;-69
2022/03/23 08:18:02;;;;;;;12.68;8.80;;;23.10;17.50;;;;;;5054934;28;20025;-71
2022/03/23 08:20:35;;;;;;;14.70;9.40;;;23.70;18.10;;;;;;5054697;28;20025;-71
2022/03/23 08:23:03;;;;;;;13.15;9.30;;;23.40;17.50;;;;;;5055098;28;20400;-70
2022/03/23 08:25:29;;;;;;;18.20;10.02;;;20.80;19.60;;;;;;5054776;28;20078;-70
2022/03/23 08:27:55;;;;;;;19.98;10.15;;;19.70;21.20;;;;;;5054598;28;20511;-70
2022/03/23 08:30:21;;;;;;;21.70;10.32;;;19.20;21.60;;;;;;5037008;28;20029;-71
2022/03/23 08:32:47;;;;;;;13.90;10.38;;;18.50;22.30;;;;;;5054736;28;20591;-70
2022/03/23 08:35:13;;;;;;;15.65;11.00;;;18.50;22.40;;;;;;5054394;28;20408;-71
2022/03/23 08:37:39;;;;;;;14.93;9.80;;;18.00;23.00;;;;;;5036133;28;20025;-71
2022/03/23 08:40:06;;;;;;;15.95;10.75;;;18.20;23.40;;;;;;5054615;28;20391;-71
2022/03/23 08:42:31;;;;;;;15.88;10.90;;;18.30;23.60;;;;;;5054334;28;20534;-72
2022/03/23 08:44:57;;;;;;;14.93;10.30;;;18.30;22.80;;;;;;5054387;28;20075;-71
2022/03/23 08:47:23;;;;;;;18.27;10.13;;;18.70;22.80;;;;;;5054270;28;20023;-70
2022/03/23 08:49:49;;;;;;;13.57;9.43;;;18.50;23.00;;;;;;5036399;28;20407;-71
2022/03/23 08:52:15;;;;;;;16.60;9.90;;;18.20;22.70;;;;;;5054474;28;20044;-71
2022/03/23 08:54:41;;;;;;;14.57;9.80;;;18.50;21.90;;;;;;5054723;28;20454;-69
2022/03/23 08:57:06;;;;;;;13.07;9.45;;;18.80;22.10;;;;;;5054099;28;20067;-69
2022/03/23 08:59:32;;;;;;;15.63;10.18;;;19.20;21.70;;;;;;5054250;28;20061;-71
2022/03/23 09:01:58;;;;;;;15.25;9.32;;;20.30;20.50;;;;;;5054240;28;20045;-70
2022/03/23 09:04:23;;;;;;;16.48;9.73;;;19.90;20.30;;;;;;5053998;28;20119;-71
2022/03/23 09:06:49;;;;;;;16.50;9.32;;;18.90;21.50;;;;;;5053756;28;20051;-70
2022/03/23 09:09:15;;;;;;;11.73;8.57;;;18.40;22.30;;;;;;5053595;28;20040;-72
2022/03/23 09:11:43;;;;;;;18.40;9.43;;;19.10;22.60;;;;;;5053793;28;20168;-70
2022/03/23 09:14:12;;;;;;;15.95;10.02;;;20.00;20.90;;;;;;5053650;28;20040;-71
2022/03/23 09:16:38;;;;;;;16.40;9.80;;;19.90;21.00;;;;;;5048122;28;20032;-71
2022/03/23 09:19:03;;;;;;;14.02;9.93;;;19.50;21.10;;;;;;5033615;28;20030;-71
2022/03/23 09:21:29;;;;;;;15.35;10.02;;;19.10;21.50;;;;;;5040875;28;20017;-72
2022/03/23 09:23:55;;;;;;;12.80;9.90;;;19.60;21.60;;;;;;5052898;28;20037;-72
2022/03/23 09:26:20;;;;;;;13.25;9.50;;;20.20;20.90;;;;;;5053804;28;20056;-72
2022/03/23 09:28:46;;;;;;;16.33;9.77;;;19.90;21.40;;;;;;5053575;28;20028;-72
2022/03/23 09:31:12;;;;;;;15.60;10.05;;;20.10;21.00;;;;;;5053781;28;20078;-70
2022/03/23 09:33:38;;;;;;;19.48;11.40;;;20.50;21.00;;;;;;5046716;28;20032;-72
2022/03/23 09:36:04;;;;;;;18.67;10.93;;;20.30;20.80;;;;;;5033750;28;20439;-70
2022/03/23 09:38:30;;;;;;;15.57;10.40;;;20.10;21.90;;;;;;5033541;28;20025;-71
2022/03/23 09:40:56;;;;;;;16.15;11.52;;;20.10;21.30;;;;;;5042872;28;20087;-69
2022/03/23 09:43:24;;;;;;;17.70;11.25;;;20.40;23.30;;;;;;5053310;28;20052;-71
2022/03/23 09:45:51;;;;;;;18.52;11.10;;;20.70;22.40;;;;;;5053159;28;20128;-71
2022/03/23 09:48:22;;;;;;;22.90;11.40;;;20.90;22.10;;;;;;5034973;28;20025;-71
2022/03/23 09:50:52;;;;;;;21.35;11.75;;;21.00;21.20;;;;;;5053194;28;20041;-71
2022/03/23 09:53:19;;;;;;;17.20;12.32;;;19.80;21.80;;;;;;5053362;28;20021;-71
2022/03/23 09:55:45;;;;;;;19.55;11.88;;;19.10;22.70;;;;;;5035395;28;20128;-70
2022/03/23 09:58:11;;;;;;;19.67;11.80;;;18.60;23.10;;;;;;5053098;28;20467;-71
2022/03/23 10:00:42;;;;;;;20.42;12.02;;;17.70;24.20;;;;;;5053395;28;20025;-71
2022/03/23 10:03:17;;;;;;;23.38;11.38;;;17.50;25.80;;;;;;5054466;28;20033;-71
2022/03/23 10:06:19;;;;;;;18.25;12.85;;;17.90;24.80;;;;;;5055299;28;20427;-71
2022/03/23 10:08:53;;;;;;;20.95;12.57;;;18.10;26.00;;;;;;5036809;28;20093;-71
2022/03/23 10:11:43;;;;;;;18.88;12.68;;;18.30;24.50;;;;;;5035858;28;20546;-72
2022/03/23 10:14:46;;;;;;;18.05;12.65;;;17.80;25.10;;;;;;5042297;28;20025;-71
2022/03/23 10:17:39;;;;;;;24.23;13.07;;;17.50;25.60;;;;;;5031805;28;20022;-71
2022/03/23 10:20:05;;;;;;;20.17;12.52;;;17.40;26.00;;;;;;5014626;28;20025;-70
2022/03/23 10:22:30;;;;;;;20.45;13.05;;;17.00;26.50;;;;;;5031648;28;20381;-71
2022/03/23 10:25:06;;;;;;;24.50;13.18;;;17.00;26.40;;;;;;5014235;28;20400;-71
2022/03/23 10:27:32;;;;;;;18.67;12.77;;;16.90;26.60;;;;;;5038874;28;20017;-71
2022/03/23 10:29:58;;;;;;;21.25;13.07;;;16.80;26.90;;;;;;5029108;28;20025;-72
2022/03/23 10:32:36;;;;;;;20.55;13.57;;;16.80;27.30;;;;;;5043728;28;20044;-70
2022/03/23 10:35:04;;;;;;;19.95;12.35;;;16.30;27.50;;;;;;5043991;28;20020;-70
2022/03/23 10:37:34;;;;;;;17.92;12.23;;;16.00;28.40;;;;;;5056049;28;20025;-70
2022/03/23 10:40:09;;;;;;;17.13;12.30;;;15.90;28.90;;;;;;5052420;28;20492;-70
2022/03/23 10:42:38;;;;;;;19.80;12.35;;;16.00;28.80;;;;;;5052821;28;20511;-70
2022/03/23 10:45:11;;;;;;;19.98;12.73;;;16.20;30.20;;;;;;5034245;28;20492;-69
2022/03/23 10:47:38;;;;;;;26.20;13.80;;;16.20;27.20;;;;;;5051887;28;20396;-71
2022/03/23 10:50:19;;;;;;;26.33;13.15;;;16.00;27.80;;;;;;5052230;28;20032;-70
2022/03/23 10:52:49;;;;;;;21.42;13.32;;;16.10;27.90;;;;;;5034140;28;20115;-71
2022/03/23 10:55:16;;;;;;;20.80;13.80;;;16.00;27.80;;;;;;5051883;28;20028;-71
2022/03/23 10:57:51;;;;;;;20.88;13.07;;;16.00;28.00;;;;;;5051762;28;20033;-71
2022/03/23 11:00:38;;;;;;;21.08;12.80;;;16.10;27.30;;;;;;5052150;28;20025;-72
2022/03/23 11:03:05;;;;;;;17.05;12.75;;;16.10;27.90;;;;;;5052029;28;20028;-71
2022/03/23 11:05:39;;;;;;;25.15;14.05;;;16.20;27.50;;;;;;5051589;28;20576;-70
2022/03/23 11:08:10;;;;;;;19.85;13.40;;;16.10;27.60;;;;;;5051717;28;20025;-70
2022/03/23 11:16:11;;;;;;;18.02;12.27;;;16.20;27.50;;;;;;5047739;28;20043;-71
2022/03/23 11:18:36;;;;;;;22.05;12.95;;;16.20;29.00;;;;;;5025209;28;20396;-70
2022/03/23 11:21:02;;;;;;;20.30;12.98;;;16.10;27.30;;;;;;5051709;28;20036;-70
2022/03/23 11:23:33;;;;;;;21.77;14.50;;;16.20;27.90;;;;;;5033712;28;20025;-70
2022/03/23 11:26:01;;;;;;;16.50;12.63;;;16.30;28.20;;;;;;5020037;28;20052;-70
2022/03/23 11:28:28;;;;;;;20.95;14.55;;;16.40;30.30;;;;;;5029808;28;20373;-70
2022/03/23 11:30:56;;;;;;;19.35;14.05;;;16.50;27.70;;;;;;5013699;28;20021;-71
2022/03/23 11:33:24;;;;;;;20.45;13.88;;;16.40;27.20;;;;;;5029748;28;20017;-70
2022/03/23 11:35:52;;;;;;;22.75;14.18;;;16.50;28.20;;;;;;5029687;28;20323;-71
2022/03/23 11:38:23;;;;;;;20.17;13.50;;;16.60;29.90;;;;;;5029904;28;20021;-71
2022/03/23 11:40:52;;;;;;;19.42;13.45;;;16.70;27.60;;;;;;5031993;28;20024;-71
2022/03/23 11:43:20;;;;;;;22.23;13.05;;;16.60;29.80;;;;;;5043412;28;20018;-71
2022/03/23 11:45:47;;;;;;;20.15;14.13;;;16.80;28.90;;;;;;5042030;28;20382;-71
2022/03/23 11:48:27;;;;;;;19.00;14.23;;;16.60;27.30;;;;;;5054791;28;20453;-71
2022/03/23 11:51:15;;;;;;;18.10;12.95;;;16.60;27.70;;;;;;5038041;28;20018;-70
2022/03/23 11:54:00;;;;;;;21.40;13.07;;;16.60;28.30;;;;;;5049356;28;20503;-71
2022/03/23 11:56:35;;;;;;;16.25;13.13;;;16.50;27.50;;;;;;5055447;28;20083;-71
2022/03/23 11:59:24;;;;;;;22.27;14.85;;;16.50;27.60;;;;;;5054713;28;20471;-71
2022/03/23 12:01:51;;;;;;;22.55;13.80;;;16.60;27.20;;;;;;5055301;28;20029;-72
2022/03/23 12:04:21;;;;;;;20.40;12.93;;;16.80;28.20;;;;;;5055232;28;20024;-71
2022/03/23 12:07:03;;;;;;;19.95;12.55;;;16.80;29.00;;;;;;5055395;28;20021;-70
2022/03/23 12:09:44;;;;;;;16.60;13.13;;;16.90;29.70;;;;;;5055110;28;20067;-72
2022/03/23 12:12:10;;;;;;;17.27;13.02;;;17.00;29.40;;;;;;5032400;28;20033;-70
2022/03/23 12:14:37;;;;;;;16.75;11.85;;;17.10;26.60;;;;;;5047327;28;20056;-71
2022/03/23 12:17:16;;;;;;;19.27;11.48;;;17.00;26.30;;;;;;5036270;28;20045;-70
2022/03/23 12:20:05;;;;;;;20.23;11.55;;;16.80;25.90;;;;;;5035191;28;20512;-71
2022/03/23 12:22:34;;;;;;;16.10;11.25;;;16.90;28.90;;;;;;5017149;28;20060;-71
2022/03/23 12:25:37;;;;;;;17.80;10.80;;;17.00;28.00;;;;;;5034806;28;20108;-71
2022/03/23 12:28:32;;;;;;;17.85;10.85;;;17.00;28.90;;;;;;5034569;28;20076;-71
2022/03/23 12:30:58;;;;;;;20.60;13.05;;;17.00;25.50;;;;;;5007561;28;20032;-70
2022/03/23 12:33:30;;;;;;;20.20;11.60;;;17.00;25.50;;;;;;5034609;28;20385;-70
2022/03/23 12:36:01;;;;;;;15.65;11.35;;;17.20;26.20;;;;;;5034451;28;20029;-71
2022/03/23 12:38:30;;;;;;;15.43;11.50;;;17.20;24.90;;;;;;5033755;28;20040;-71
2022/03/23 12:41:00;;;;;;;18.92;12.27;;;17.10;24.70;;;;;;5034681;28;20029;-70
2022/03/23 12:43:46;;;;;;;15.50;10.98;;;17.10;27.30;;;;;;5034186;28;20040;-71
2022/03/23 12:46:26;;;;;;;16.77;11.23;;;17.30;27.80;;;;;;5035526;28;20412;-71
2022/03/23 12:57:49;;;;;;;19.13;12.32;;;17.50;26.30;;;;;;5053890;28;20027;-71
2022/03/23 13:00:40;;;;;;;17.77;11.85;;;17.50;25.20;;;;;;5054085;28;20040;-71
2022/03/23 13:03:06;;;;;;;21.20;12.18;;;17.50;25.20;;;;;;5053958;28;20380;-71
2022/03/23 13:05:36;;;;;;;16.83;11.43;;;17.50;27.40;;;;;;5053828;28;20029;-70
2022/03/23 13:08:33;;;;;;;14.95;11.10;;;17.50;28.80;;;;;;5035240;28;20028;-71